sensor_id;sensor_type;location;lat;lon;timestamp;P1;durP1;ratioP1;P2;durP2;ratioP2
65375;SDS011;51976;47.332;9.404;2022-08-19T00:00:33;1.25;;;1.00;;
65375;SDS011;51976;47.332;9.404;2022-08-19T00:02:59;1.95;;;1.20;;
65375;SDS011;51976;47.332;9.404;2022-08-19T00:05:25;2.40;;;1.45;;
65375;SDS011;51976;47.332;9.404;2022-08-19T00:07:50;1.77;;;1.40;;
65375;SDS011;51976;47.332;9.404;2022-08-19T00:10:16;1.40;;;1.00;;
65375;SDS011;51976;47.332;9.404;2022-08-19T00:12:44;1.40;;;1.10;;
65375;SDS011;51976;47.332;9.404;2022-08-19T00:15:10;2.20;;;1.30;;
65375;SDS011;51976;47.332;9.404;2022-08-19T00:17:39;1.20;;;1.00;;
65375;SDS011;51976;47.332;9.404;2022-08-19T00:20:06;1.90;;;1.35;;
65375;SDS011;51976;47.332;9.404;2022-08-19T00:22:32;1.63;;;1.30;;
65375;SDS011;51976;47.332;9.404;2022-08-19T00:24:58;1.50;;;1.15;;
65375;SDS011;51976;47.332;9.404;2022-08-19T00:27:23;1.25;;;1.00;;
65375;SDS011;51976;47.332;9.404;2022-08-19T00:29:49;1.50;;;1.05;;
65375;SDS011;51976;47.332;9.404;2022-08-19T00:32:15;1.83;;;1.25;;
65375;SDS011;51976;47.332;9.404;2022-08-19T00:34:41;2.58;;;1.20;;
65375;SDS011;51976;47.332;9.404;2022-08-19T00:37:07;2.15;;;1.40;;
65375;SDS011;51976;47.332;9.404;2022-08-19T00:39:32;2.72;;;1.73;;
65375;SDS011;51976;47.332;9.404;2022-08-19T00:41:58;1.42;;;1.20;;
65375;SDS011;51976;47.332;9.404;2022-08-19T00:44:25;1.45;;;1.33;;
65375;SDS011;51976;47.332;9.404;2022-08-19T00:46:52;1.45;;;1.20;;
65375;SDS011;51976;47.332;9.404;2022-08-19T00:49:21;1.80;;;1.17;;
65375;SDS011;51976;47.332;9.404;2022-08-19T00:51:51;1.30;;;1.20;;
65375;SDS011;51976;47.332;9.404;2022-08-19T00:54:20;1.30;;;1.08;;
65375;SDS011;51976;47.332;9.404;2022-08-19T00:56:47;1.33;;;1.15;;
65375;SDS011;51976;47.332;9.404;2022-08-19T00:59:15;1.48;;;1.25;;
65375;SDS011;51976;47.332;9.404;2022-08-19T01:01:42;1.60;;;1.02;;
65375;SDS011;51976;47.332;9.404;2022-08-19T01:04:09;1.27;;;1.15;;
65375;SDS011;51976;47.332;9.404;2022-08-19T01:06:35;1.83;;;1.30;;
65375;SDS011;51976;47.332;9.404;2022-08-19T01:09:03;1.52;;;1.20;;
65375;SDS011;51976;47.332;9.404;2022-08-19T01:11:29;1.52;;;1.10;;
65375;SDS011;51976;47.332;9.404;2022-08-19T01:13:58;1.83;;;1.27;;
65375;SDS011;51976;47.332;9.404;2022-08-19T01:16:24;1.30;;;1.20;;
65375;SDS011;51976;47.332;9.404;2022-08-19T01:18:51;1.48;;;1.05;;
65375;SDS011;51976;47.332;9.404;2022-08-19T01:21:34;1.55;;;1.13;;
65375;SDS011;51976;47.332;9.404;2022-08-19T01:24:07;1.40;;;1.10;;
65375;SDS011;51976;47.332;9.404;2022-08-19T01:26:37;1.95;;;1.15;;
65375;SDS011;51976;47.332;9.404;2022-08-19T01:29:06;1.27;;;1.17;;
65375;SDS011;51976;47.332;9.404;2022-08-19T01:31:33;2.50;;;1.23;;
65375;SDS011;51976;47.332;9.404;2022-08-19T01:34:00;2.35;;;1.20;;
65375;SDS011;51976;47.332;9.404;2022-08-19T01:36:33;1.60;;;1.20;;
65375;SDS011;51976;47.332;9.404;2022-08-19T01:39:06;1.60;;;1.30;;
65375;SDS011;51976;47.332;9.404;2022-08-19T01:41:34;1.80;;;1.30;;
65375;SDS011;51976;47.332;9.404;2022-08-19T01:44:00;1.48;;;1.00;;
65375;SDS011;51976;47.332;9.404;2022-08-19T01:46:28;1.52;;;1.30;;
65375;SDS011;51976;47.332;9.404;2022-08-19T01:48:54;1.33;;;1.02;;
65375;SDS011;51976;47.332;9.404;2022-08-19T01:51:20;2.55;;;1.23;;
65375;SDS011;51976;47.332;9.404;2022-08-19T01:53:49;1.60;;;1.17;;
65375;SDS011;51976;47.332;9.404;2022-08-19T01:56:16;1.48;;;1.10;;
65375;SDS011;51976;47.332;9.404;2022-08-19T01:58:44;1.70;;;1.20;;
65375;SDS011;51976;47.332;9.404;2022-08-19T02:01:18;1.80;;;1.20;;
65375;SDS011;51976;47.332;9.404;2022-08-19T02:03:44;1.90;;;1.33;;
65375;SDS011;51976;47.332;9.404;2022-08-19T02:06:10;1.50;;;1.10;;
65375;SDS011;51976;47.332;9.404;2022-08-19T02:08:37;1.50;;;1.10;;
65375;SDS011;51976;47.332;9.404;2022-08-19T02:11:05;1.52;;;1.00;;
65375;SDS011;51976;47.332;9.404;2022-08-19T02:13:31;1.80;;;1.10;;
65375;SDS011;51976;47.332;9.404;2022-08-19T02:15:58;1.10;;;1.00;;
65375;SDS011;51976;47.332;9.404;2022-08-19T02:18:24;1.90;;;1.08;;
65375;SDS011;51976;47.332;9.404;2022-08-19T02:20:49;1.70;;;1.25;;
65375;SDS011;51976;47.332;9.404;2022-08-19T02:23:15;1.23;;;0.95;;
65375;SDS011;51976;47.332;9.404;2022-08-19T02:25:42;2.00;;;1.23;;
65375;SDS011;51976;47.332;9.404;2022-08-19T02:28:09;1.60;;;1.10;;
65375;SDS011;51976;47.332;9.404;2022-08-19T02:30:36;1.25;;;1.05;;
65375;SDS011;51976;47.332;9.404;2022-08-19T02:33:03;1.30;;;1.10;;
65375;SDS011;51976;47.332;9.404;2022-08-19T02:35:29;1.48;;;1.10;;
65375;SDS011;51976;47.332;9.404;2022-08-19T02:37:56;1.38;;;1.20;;
65375;SDS011;51976;47.332;9.404;2022-08-19T02:40:47;1.33;;;1.02;;
65375;SDS011;51976;47.332;9.404;2022-08-19T02:45:42;1.50;;;1.05;;
65375;SDS011;51976;47.332;9.404;2022-08-19T02:48:07;1.40;;;1.30;;
65375;SDS011;51976;47.332;9.404;2022-08-19T02:50:36;1.23;;;0.82;;
65375;SDS011;51976;47.332;9.404;2022-08-19T02:53:02;1.90;;;1.30;;
65375;SDS011;51976;47.332;9.404;2022-08-19T02:55:28;1.50;;;1.23;;
65375;SDS011;51976;47.332;9.404;2022-08-19T02:57:53;1.70;;;1.08;;
65375;SDS011;51976;47.332;9.404;2022-08-19T03:00:19;1.75;;;1.20;;
65375;SDS011;51976;47.332;9.404;2022-08-19T03:02:45;1.83;;;1.45;;
65375;SDS011;51976;47.332;9.404;2022-08-19T03:05:11;1.58;;;1.08;;
65375;SDS011;51976;47.332;9.404;2022-08-19T03:07:38;1.83;;;1.13;;
65375;SDS011;51976;47.332;9.404;2022-08-19T03:10:04;1.10;;;0.90;;
65375;SDS011;51976;47.332;9.404;2022-08-19T03:12:29;1.30;;;0.95;;
65375;SDS011;51976;47.332;9.404;2022-08-19T03:14:55;1.80;;;1.17;;
65375;SDS011;51976;47.332;9.404;2022-08-19T03:17:21;1.27;;;1.02;;
65375;SDS011;51976;47.332;9.404;2022-08-19T03:19:46;2.50;;;1.10;;
65375;SDS011;51976;47.332;9.404;2022-08-19T03:22:12;1.45;;;1.10;;
65375;SDS011;51976;47.332;9.404;2022-08-19T03:24:37;1.58;;;1.20;;
65375;SDS011;51976;47.332;9.404;2022-08-19T03:27:03;1.40;;;1.10;;
65375;SDS011;51976;47.332;9.404;2022-08-19T03:29:30;1.63;;;1.15;;
65375;SDS011;51976;47.332;9.404;2022-08-19T03:31:57;1.80;;;1.10;;
65375;SDS011;51976;47.332;9.404;2022-08-19T03:34:28;1.98;;;1.13;;
65375;SDS011;51976;47.332;9.404;2022-08-19T03:36:56;1.65;;;1.10;;
65375;SDS011;51976;47.332;9.404;2022-08-19T03:39:23;1.40;;;1.10;;
65375;SDS011;51976;47.332;9.404;2022-08-19T03:41:51;1.70;;;1.00;;
65375;SDS011;51976;47.332;9.404;2022-08-19T03:44:21;1.10;;;1.00;;
65375;SDS011;51976;47.332;9.404;2022-08-19T03:46:48;1.92;;;1.30;;
65375;SDS011;51976;47.332;9.404;2022-08-19T03:49:15;1.30;;;1.10;;
65375;SDS011;51976;47.332;9.404;2022-08-19T03:51:43;1.50;;;0.90;;
65375;SDS011;51976;47.332;9.404;2022-08-19T03:54:10;1.10;;;0.82;;
65375;SDS011;51976;47.332;9.404;2022-08-19T03:56:38;1.27;;;1.08;;
65375;SDS011;51976;47.332;9.404;2022-08-19T03:59:05;3.22;;;1.30;;
65375;SDS011;51976;47.332;9.404;2022-08-19T04:01:34;1.65;;;1.00;;
65375;SDS011;51976;47.332;9.404;2022-08-19T04:04:00;1.40;;;1.10;;
65375;SDS011;51976;47.332;9.404;2022-08-19T04:06:28;1.42;;;1.00;;
65375;SDS011;51976;47.332;9.404;2022-08-19T04:08:56;1.50;;;1.00;;
65375;SDS011;51976;47.332;9.404;2022-08-19T04:11:24;1.45;;;1.17;;
65375;SDS011;51976;47.332;9.404;2022-08-19T04:13:52;1.42;;;0.90;;
65375;SDS011;51976;47.332;9.404;2022-08-19T04:16:20;1.50;;;0.98;;
65375;SDS011;51976;47.332;9.404;2022-08-19T04:18:47;1.50;;;1.17;;
65375;SDS011;51976;47.332;9.404;2022-08-19T04:21:19;1.50;;;1.00;;
65375;SDS011;51976;47.332;9.404;2022-08-19T04:23:46;1.27;;;1.00;;
65375;SDS011;51976;47.332;9.404;2022-08-19T04:26:13;1.50;;;1.00;;
65375;SDS011;51976;47.332;9.404;2022-08-19T04:28:43;1.50;;;1.30;;
65375;SDS011;51976;47.332;9.404;2022-08-19T04:31:13;1.40;;;1.10;;
65375;SDS011;51976;47.332;9.404;2022-08-19T04:33:40;1.48;;;1.10;;
65375;SDS011;51976;47.332;9.404;2022-08-19T04:36:06;1.70;;;1.20;;
65375;SDS011;51976;47.332;9.404;2022-08-19T04:38:32;1.30;;;1.00;;
65375;SDS011;51976;47.332;9.404;2022-08-19T04:40:58;1.98;;;0.90;;
65375;SDS011;51976;47.332;9.404;2022-08-19T04:43:44;1.27;;;0.90;;
65375;SDS011;51976;47.332;9.404;2022-08-19T04:46:13;1.40;;;1.02;;
65375;SDS011;51976;47.332;9.404;2022-08-19T04:48:39;2.08;;;0.90;;
65375;SDS011;51976;47.332;9.404;2022-08-19T04:51:09;1.83;;;1.00;;
65375;SDS011;51976;47.332;9.404;2022-08-19T04:53:37;1.48;;;1.10;;
65375;SDS011;51976;47.332;9.404;2022-08-19T04:56:06;1.30;;;0.90;;
65375;SDS011;51976;47.332;9.404;2022-08-19T04:58:34;1.27;;;0.93;;
65375;SDS011;51976;47.332;9.404;2022-08-19T05:01:00;1.92;;;0.93;;
65375;SDS011;51976;47.332;9.404;2022-08-19T05:03:26;1.40;;;1.20;;
65375;SDS011;51976;47.332;9.404;2022-08-19T05:05:51;1.45;;;0.88;;
65375;SDS011;51976;47.332;9.404;2022-08-19T05:08:19;1.23;;;0.90;;
65375;SDS011;51976;47.332;9.404;2022-08-19T05:10:47;1.38;;;1.10;;
65375;SDS011;51976;47.332;9.404;2022-08-19T05:13:14;1.55;;;1.08;;
65375;SDS011;51976;47.332;9.404;2022-08-19T05:15:41;1.67;;;1.27;;
65375;SDS011;51976;47.332;9.404;2022-08-19T05:18:07;1.13;;;1.00;;
65375;SDS011;51976;47.332;9.404;2022-08-19T05:20:52;1.50;;;1.10;;
65375;SDS011;51976;47.332;9.404;2022-08-19T05:26:04;1.55;;;1.05;;
65375;SDS011;51976;47.332;9.404;2022-08-19T05:28:30;1.70;;;1.13;;
65375;SDS011;51976;47.332;9.404;2022-08-19T05:30:55;3.58;;;1.08;;
65375;SDS011;51976;47.332;9.404;2022-08-19T05:33:21;1.83;;;1.17;;
65375;SDS011;51976;47.332;9.404;2022-08-19T05:35:49;1.17;;;0.90;;
65375;SDS011;51976;47.332;9.404;2022-08-19T05:38:18;2.38;;;1.20;;
65375;SDS011;51976;47.332;9.404;2022-08-19T05:40:43;2.92;;;1.45;;
65375;SDS011;51976;47.332;9.404;2022-08-19T05:43:12;1.60;;;1.00;;
65375;SDS011;51976;47.332;9.404;2022-08-19T05:45:40;2.13;;;1.35;;
65375;SDS011;51976;47.332;9.404;2022-08-19T05:48:07;1.40;;;1.02;;
65375;SDS011;51976;47.332;9.404;2022-08-19T05:50:34;2.33;;;1.25;;
65375;SDS011;51976;47.332;9.404;2022-08-19T05:53:00;2.22;;;1.10;;
65375;SDS011;51976;47.332;9.404;2022-08-19T05:55:28;3.42;;;1.30;;
65375;SDS011;51976;47.332;9.404;2022-08-19T05:57:54;3.60;;;1.40;;
65375;SDS011;51976;47.332;9.404;2022-08-19T06:00:19;2.60;;;1.45;;
65375;SDS011;51976;47.332;9.404;2022-08-19T06:02:45;1.70;;;1.17;;
65375;SDS011;51976;47.332;9.404;2022-08-19T06:05:10;3.20;;;1.50;;
65375;SDS011;51976;47.332;9.404;2022-08-19T06:07:36;4.78;;;1.67;;
65375;SDS011;51976;47.332;9.404;2022-08-19T06:10:06;3.53;;;1.60;;
65375;SDS011;51976;47.332;9.404;2022-08-19T06:12:34;3.80;;;1.85;;
65375;SDS011;51976;47.332;9.404;2022-08-19T06:15:05;2.47;;;1.20;;
65375;SDS011;51976;47.332;9.404;2022-08-19T06:17:33;3.92;;;1.45;;
65375;SDS011;51976;47.332;9.404;2022-08-19T06:20:00;3.03;;;1.60;;
65375;SDS011;51976;47.332;9.404;2022-08-19T06:22:26;2.95;;;1.48;;
65375;SDS011;51976;47.332;9.404;2022-08-19T06:24:52;2.42;;;1.50;;
65375;SDS011;51976;47.332;9.404;2022-08-19T06:27:19;3.03;;;1.40;;
65375;SDS011;51976;47.332;9.404;2022-08-19T06:29:45;3.88;;;1.52;;
65375;SDS011;51976;47.332;9.404;2022-08-19T06:32:11;3.40;;;1.60;;
65375;SDS011;51976;47.332;9.404;2022-08-19T06:34:39;5.07;;;2.08;;
65375;SDS011;51976;47.332;9.404;2022-08-19T06:37:05;1.88;;;1.20;;
65375;SDS011;51976;47.332;9.404;2022-08-19T06:39:33;4.30;;;1.50;;
65375;SDS011;51976;47.332;9.404;2022-08-19T06:42:01;3.05;;;1.20;;
65375;SDS011;51976;47.332;9.404;2022-08-19T06:44:32;4.40;;;1.60;;
65375;SDS011;51976;47.332;9.404;2022-08-19T06:47:02;2.88;;;1.20;;
65375;SDS011;51976;47.332;9.404;2022-08-19T06:49:28;4.30;;;1.67;;
65375;SDS011;51976;47.332;9.404;2022-08-19T06:51:56;2.63;;;1.50;;
65375;SDS011;51976;47.332;9.404;2022-08-19T06:54:23;3.08;;;1.38;;
65375;SDS011;51976;47.332;9.404;2022-08-19T06:56:49;3.08;;;1.48;;
65375;SDS011;51976;47.332;9.404;2022-08-19T06:59:16;1.75;;;1.10;;
65375;SDS011;51976;47.332;9.404;2022-08-19T07:01:46;2.45;;;1.25;;
65375;SDS011;51976;47.332;9.404;2022-08-19T07:04:15;3.70;;;1.33;;
65375;SDS011;51976;47.332;9.404;2022-08-19T07:06:42;1.52;;;1.08;;
65375;SDS011;51976;47.332;9.404;2022-08-19T07:09:09;4.32;;;1.38;;
65375;SDS011;51976;47.332;9.404;2022-08-19T07:11:38;2.72;;;1.50;;
65375;SDS011;51976;47.332;9.404;2022-08-19T07:14:08;3.33;;;1.20;;
65375;SDS011;51976;47.332;9.404;2022-08-19T07:16:34;4.10;;;1.60;;
65375;SDS011;51976;47.332;9.404;2022-08-19T07:18:59;4.35;;;1.75;;
65375;SDS011;51976;47.332;9.404;2022-08-19T07:21:26;4.25;;;2.20;;
65375;SDS011;51976;47.332;9.404;2022-08-19T07:23:53;3.75;;;1.60;;
65375;SDS011;51976;47.332;9.404;2022-08-19T07:26:23;4.75;;;1.67;;
65375;SDS011;51976;47.332;9.404;2022-08-19T07:28:53;5.07;;;1.50;;
65375;SDS011;51976;47.332;9.404;2022-08-19T07:31:22;6.60;;;1.75;;
65375;SDS011;51976;47.332;9.404;2022-08-19T07:33:49;5.75;;;2.20;;
65375;SDS011;51976;47.332;9.404;2022-08-19T07:36:17;5.82;;;1.35;;
65375;SDS011;51976;47.332;9.404;2022-08-19T07:38:46;5.22;;;1.73;;
65375;SDS011;51976;47.332;9.404;2022-08-19T07:41:15;6.38;;;2.03;;
65375;SDS011;51976;47.332;9.404;2022-08-19T07:43:43;3.20;;;2.03;;
65375;SDS011;51976;47.332;9.404;2022-08-19T07:46:10;11.95;;;2.20;;
65375;SDS011;51976;47.332;9.404;2022-08-19T07:48:38;6.18;;;2.10;;
65375;SDS011;51976;47.332;9.404;2022-08-19T07:51:06;4.20;;;2.30;;
65375;SDS011;51976;47.332;9.404;2022-08-19T07:53:33;5.68;;;2.08;;
65375;SDS011;51976;47.332;9.404;2022-08-19T07:56:00;8.27;;;2.25;;
65375;SDS011;51976;47.332;9.404;2022-08-19T07:58:33;7.25;;;2.40;;
65375;SDS011;51976;47.332;9.404;2022-08-19T08:01:01;6.70;;;2.28;;
65375;SDS011;51976;47.332;9.404;2022-08-19T08:03:27;4.95;;;2.10;;
65375;SDS011;51976;47.332;9.404;2022-08-19T08:06:13;6.65;;;2.72;;
65375;SDS011;51976;47.332;9.404;2022-08-19T08:09:00;3.90;;;1.98;;
65375;SDS011;51976;47.332;9.404;2022-08-19T08:11:40;5.47;;;2.30;;
65375;SDS011;51976;47.332;9.404;2022-08-19T08:14:08;3.30;;;2.25;;
65375;SDS011;51976;47.332;9.404;2022-08-19T08:16:37;6.90;;;2.53;;
65375;SDS011;51976;47.332;9.404;2022-08-19T08:19:06;7.45;;;2.00;;
65375;SDS011;51976;47.332;9.404;2022-08-19T08:21:32;4.13;;;2.20;;
65375;SDS011;51976;47.332;9.404;2022-08-19T08:23:59;7.32;;;2.60;;
65375;SDS011;51976;47.332;9.404;2022-08-19T08:26:24;6.25;;;1.95;;
65375;SDS011;51976;47.332;9.404;2022-08-19T08:28:51;8.75;;;2.35;;
65375;SDS011;51976;47.332;9.404;2022-08-19T08:31:17;7.38;;;2.10;;
65375;SDS011;51976;47.332;9.404;2022-08-19T08:33:46;5.32;;;2.30;;
65375;SDS011;51976;47.332;9.404;2022-08-19T08:36:12;4.05;;;2.60;;
65375;SDS011;51976;47.332;9.404;2022-08-19T08:38:39;3.40;;;2.28;;
65375;SDS011;51976;47.332;9.404;2022-08-19T08:41:10;3.78;;;2.65;;
65375;SDS011;51976;47.332;9.404;2022-08-19T08:43:48;3.45;;;2.33;;
65375;SDS011;51976;47.332;9.404;2022-08-19T08:46:19;7.25;;;2.97;;
65375;SDS011;51976;47.332;9.404;2022-08-19T08:52:04;6.22;;;3.10;;
65375;SDS011;51976;47.332;9.404;2022-08-19T08:54:36;3.72;;;2.72;;
65375;SDS011;51976;47.332;9.404;2022-08-19T08:57:07;4.25;;;2.60;;
65375;SDS011;51976;47.332;9.404;2022-08-19T08:59:41;5.13;;;3.15;;
65375;SDS011;51976;47.332;9.404;2022-08-19T09:02:13;5.47;;;3.15;;
65375;SDS011;51976;47.332;9.404;2022-08-19T09:04:38;3.80;;;3.13;;
65375;SDS011;51976;47.332;9.404;2022-08-19T09:10:16;4.70;;;3.20;;
65375;SDS011;51976;47.332;9.404;2022-08-19T09:13:37;4.55;;;3.20;;
65375;SDS011;51976;47.332;9.404;2022-08-19T09:16:10;4.43;;;3.05;;
65375;SDS011;51976;47.332;9.404;2022-08-19T09:18:46;5.18;;;3.20;;
65375;SDS011;51976;47.332;9.404;2022-08-19T09:21:17;4.72;;;3.38;;
65375;SDS011;51976;47.332;9.404;2022-08-19T09:23:44;5.70;;;3.35;;
65375;SDS011;51976;47.332;9.404;2022-08-19T09:26:10;6.40;;;3.13;;
65375;SDS011;51976;47.332;9.404;2022-08-19T09:28:39;5.28;;;3.33;;
65375;SDS011;51976;47.332;9.404;2022-08-19T09:31:08;5.72;;;3.10;;
65375;SDS011;51976;47.332;9.404;2022-08-19T09:33:35;4.78;;;3.10;;
65375;SDS011;51976;47.332;9.404;2022-08-19T09:36:08;6.97;;;3.78;;
65375;SDS011;51976;47.332;9.404;2022-08-19T09:38:35;4.40;;;3.15;;
65375;SDS011;51976;47.332;9.404;2022-08-19T09:41:02;6.45;;;3.45;;
65375;SDS011;51976;47.332;9.404;2022-08-19T09:43:31;4.50;;;3.40;;
65375;SDS011;51976;47.332;9.404;2022-08-19T09:46:02;4.38;;;3.65;;
65375;SDS011;51976;47.332;9.404;2022-08-19T09:48:30;4.00;;;3.00;;
65375;SDS011;51976;47.332;9.404;2022-08-19T09:51:01;4.38;;;3.47;;
65375;SDS011;51976;47.332;9.404;2022-08-19T09:53:28;4.88;;;3.35;;
65375;SDS011;51976;47.332;9.404;2022-08-19T09:55:54;5.15;;;3.55;;
65375;SDS011;51976;47.332;9.404;2022-08-19T09:58:20;6.63;;;3.40;;
65375;SDS011;51976;47.332;9.404;2022-08-19T10:00:45;4.45;;;3.50;;
65375;SDS011;51976;47.332;9.404;2022-08-19T10:03:11;4.43;;;3.20;;
65375;SDS011;51976;47.332;9.404;2022-08-19T10:05:36;4.15;;;3.28;;
65375;SDS011;51976;47.332;9.404;2022-08-19T10:08:13;4.28;;;3.20;;
65375;SDS011;51976;47.332;9.404;2022-08-19T10:10:38;8.38;;;3.90;;
65375;SDS011;51976;47.332;9.404;2022-08-19T10:13:04;4.38;;;3.38;;
65375;SDS011;51976;47.332;9.404;2022-08-19T10:15:29;4.05;;;3.17;;
65375;SDS011;51976;47.332;9.404;2022-08-19T10:17:55;5.10;;;3.50;;
65375;SDS011;51976;47.332;9.404;2022-08-19T10:20:20;4.82;;;3.30;;
65375;SDS011;51976;47.332;9.404;2022-08-19T10:22:47;3.50;;;3.00;;
65375;SDS011;51976;47.332;9.404;2022-08-19T10:25:13;5.13;;;3.22;;
65375;SDS011;51976;47.332;9.404;2022-08-19T10:27:41;4.15;;;3.35;;
65375;SDS011;51976;47.332;9.404;2022-08-19T10:30:07;6.50;;;3.20;;
65375;SDS011;51976;47.332;9.404;2022-08-19T10:32:35;4.10;;;3.45;;
65375;SDS011;51976;47.332;9.404;2022-08-19T10:35:01;3.80;;;3.17;;
65375;SDS011;51976;47.332;9.404;2022-08-19T10:37:30;7.97;;;3.90;;
65375;SDS011;51976;47.332;9.404;2022-08-19T10:39:57;4.30;;;3.10;;
65375;SDS011;51976;47.332;9.404;2022-08-19T10:42:23;3.58;;;3.28;;
65375;SDS011;51976;47.332;9.404;2022-08-19T10:44:48;4.38;;;3.33;;
65375;SDS011;51976;47.332;9.404;2022-08-19T10:47:15;5.82;;;3.53;;
65375;SDS011;51976;47.332;9.404;2022-08-19T10:49:40;3.70;;;2.95;;
65375;SDS011;51976;47.332;9.404;2022-08-19T10:52:26;3.67;;;2.90;;
65375;SDS011;51976;47.332;9.404;2022-08-19T10:55:01;3.30;;;2.95;;
65375;SDS011;51976;47.332;9.404;2022-08-19T10:57:47;4.03;;;3.30;;
65375;SDS011;51976;47.332;9.404;2022-08-19T11:00:13;6.50;;;3.63;;
65375;SDS011;51976;47.332;9.404;2022-08-19T11:02:39;6.03;;;3.13;;
65375;SDS011;51976;47.332;9.404;2022-08-19T11:05:04;5.18;;;3.35;;
65375;SDS011;51976;47.332;9.404;2022-08-19T11:07:31;3.53;;;2.80;;
65375;SDS011;51976;47.332;9.404;2022-08-19T11:09:57;3.88;;;3.00;;
65375;SDS011;51976;47.332;9.404;2022-08-19T11:12:22;4.35;;;3.20;;
65375;SDS011;51976;47.332;9.404;2022-08-19T11:14:49;6.00;;;3.15;;
65375;SDS011;51976;47.332;9.404;2022-08-19T11:17:15;5.32;;;3.50;;
65375;SDS011;51976;47.332;9.404;2022-08-19T11:19:40;5.40;;;3.55;;
65375;SDS011;51976;47.332;9.404;2022-08-19T11:22:08;3.63;;;3.00;;
65375;SDS011;51976;47.332;9.404;2022-08-19T11:24:34;3.45;;;2.95;;
65375;SDS011;51976;47.332;9.404;2022-08-19T11:27:02;5.20;;;3.15;;
65375;SDS011;51976;47.332;9.404;2022-08-19T11:29:33;3.65;;;3.10;;
65375;SDS011;51976;47.332;9.404;2022-08-19T11:32:03;5.97;;;3.25;;
65375;SDS011;51976;47.332;9.404;2022-08-19T11:34:30;3.67;;;3.17;;
65375;SDS011;51976;47.332;9.404;2022-08-19T11:36:56;4.68;;;3.25;;
65375;SDS011;51976;47.332;9.404;2022-08-19T11:39:24;3.47;;;3.00;;
65375;SDS011;51976;47.332;9.404;2022-08-19T11:41:51;5.13;;;3.10;;
65375;SDS011;51976;47.332;9.404;2022-08-19T11:44:17;4.63;;;2.75;;
65375;SDS011;51976;47.332;9.404;2022-08-19T11:46:43;3.35;;;2.80;;
65375;SDS011;51976;47.332;9.404;2022-08-19T11:49:13;5.43;;;3.20;;
65375;SDS011;51976;47.332;9.404;2022-08-19T11:51:40;7.50;;;2.75;;
65375;SDS011;51976;47.332;9.404;2022-08-19T11:54:08;5.38;;;3.38;;
65375;SDS011;51976;47.332;9.404;2022-08-19T11:56:34;3.50;;;2.80;;
65375;SDS011;51976;47.332;9.404;2022-08-19T11:59:01;3.20;;;2.67;;
65375;SDS011;51976;47.332;9.404;2022-08-19T12:01:26;3.75;;;3.08;;
65375;SDS011;51976;47.332;9.404;2022-08-19T12:03:53;4.32;;;2.55;;
65375;SDS011;51976;47.332;9.404;2022-08-19T12:06:21;4.78;;;2.80;;
65375;SDS011;51976;47.332;9.404;2022-08-19T12:08:50;3.40;;;2.70;;
65375;SDS011;51976;47.332;9.404;2022-08-19T12:11:16;3.67;;;3.00;;
65375;SDS011;51976;47.332;9.404;2022-08-19T12:13:41;3.10;;;2.63;;
65375;SDS011;51976;47.332;9.404;2022-08-19T12:16:11;3.55;;;2.40;;
65375;SDS011;51976;47.332;9.404;2022-08-19T12:18:40;3.10;;;2.50;;
65375;SDS011;51976;47.332;9.404;2022-08-19T12:21:11;4.22;;;2.70;;
65375;SDS011;51976;47.332;9.404;2022-08-19T12:23:39;2.72;;;2.20;;
65375;SDS011;51976;47.332;9.404;2022-08-19T12:26:05;4.55;;;2.35;;
65375;SDS011;51976;47.332;9.404;2022-08-19T12:28:30;3.42;;;2.13;;
65375;SDS011;51976;47.332;9.404;2022-08-19T12:30:56;2.63;;;2.03;;
65375;SDS011;51976;47.332;9.404;2022-08-19T12:33:22;2.50;;;2.30;;
65375;SDS011;51976;47.332;9.404;2022-08-19T12:35:50;2.85;;;2.15;;
65375;SDS011;51976;47.332;9.404;2022-08-19T12:38:16;2.72;;;2.10;;
65375;SDS011;51976;47.332;9.404;2022-08-19T12:40:45;2.70;;;2.05;;
65375;SDS011;51976;47.332;9.404;2022-08-19T12:43:11;5.13;;;2.20;;
65375;SDS011;51976;47.332;9.404;2022-08-19T12:45:37;6.13;;;2.10;;
65375;SDS011;51976;47.332;9.404;2022-08-19T12:48:03;4.70;;;2.03;;
65375;SDS011;51976;47.332;9.404;2022-08-19T12:50:29;6.13;;;1.90;;
65375;SDS011;51976;47.332;9.404;2022-08-19T12:52:55;3.85;;;2.28;;
65375;SDS011;51976;47.332;9.404;2022-08-19T12:55:22;5.70;;;2.17;;
65375;SDS011;51976;47.332;9.404;2022-08-19T12:57:47;4.10;;;1.92;;
65375;SDS011;51976;47.332;9.404;2022-08-19T13:00:17;4.50;;;2.10;;
65375;SDS011;51976;47.332;9.404;2022-08-19T13:02:46;4.85;;;2.17;;
65375;SDS011;51976;47.332;9.404;2022-08-19T13:05:22;3.13;;;2.20;;
65375;SDS011;51976;47.332;9.404;2022-08-19T13:07:50;5.13;;;2.30;;
65375;SDS011;51976;47.332;9.404;2022-08-19T13:10:18;2.83;;;2.28;;
65375;SDS011;51976;47.332;9.404;2022-08-19T13:12:46;5.95;;;2.17;;
65375;SDS011;51976;47.332;9.404;2022-08-19T13:15:13;2.95;;;2.03;;
65375;SDS011;51976;47.332;9.404;2022-08-19T13:17:40;3.78;;;2.03;;
65375;SDS011;51976;47.332;9.404;2022-08-19T13:20:09;3.75;;;2.20;;
65375;SDS011;51976;47.332;9.404;2022-08-19T13:22:35;3.75;;;2.22;;
65375;SDS011;51976;47.332;9.404;2022-08-19T13:25:01;5.57;;;2.60;;
65375;SDS011;51976;47.332;9.404;2022-08-19T13:27:27;3.15;;;2.20;;
65375;SDS011;51976;47.332;9.404;2022-08-19T13:29:54;3.63;;;2.28;;
65375;SDS011;51976;47.332;9.404;2022-08-19T13:32:39;5.07;;;2.00;;
65375;SDS011;51976;47.332;9.404;2022-08-19T13:35:25;3.35;;;2.28;;
65375;SDS011;51976;47.332;9.404;2022-08-19T13:37:50;2.75;;;2.17;;
65375;SDS011;51976;47.332;9.404;2022-08-19T13:40:18;4.55;;;2.15;;
65375;SDS011;51976;47.332;9.404;2022-08-19T13:42:47;5.18;;;2.20;;
65375;SDS011;51976;47.332;9.404;2022-08-19T13:45:15;4.80;;;1.98;;
65375;SDS011;51976;47.332;9.404;2022-08-19T13:47:44;5.00;;;2.08;;
65375;SDS011;51976;47.332;9.404;2022-08-19T13:50:15;3.22;;;2.30;;
65375;SDS011;51976;47.332;9.404;2022-08-19T13:52:46;4.28;;;2.47;;
65375;SDS011;51976;47.332;9.404;2022-08-19T13:55:12;4.70;;;2.10;;
65375;SDS011;51976;47.332;9.404;2022-08-19T13:57:39;4.57;;;2.08;;
65375;SDS011;51976;47.332;9.404;2022-08-19T14:00:08;5.50;;;2.20;;
65375;SDS011;51976;47.332;9.404;2022-08-19T14:02:36;5.50;;;2.35;;
65375;SDS011;51976;47.332;9.404;2022-08-19T14:05:04;3.30;;;2.78;;
65375;SDS011;51976;47.332;9.404;2022-08-19T14:07:31;3.70;;;2.47;;
65375;SDS011;51976;47.332;9.404;2022-08-19T14:09:56;4.20;;;2.63;;
65375;SDS011;51976;47.332;9.404;2022-08-19T14:12:22;4.80;;;2.40;;
65375;SDS011;51976;47.332;9.404;2022-08-19T14:14:48;3.38;;;2.58;;
65375;SDS011;51976;47.332;9.404;2022-08-19T14:17:14;3.67;;;2.75;;
65375;SDS011;51976;47.332;9.404;2022-08-19T14:19:40;4.47;;;2.83;;
65375;SDS011;51976;47.332;9.404;2022-08-19T14:22:06;5.18;;;2.83;;
65375;SDS011;51976;47.332;9.404;2022-08-19T14:24:31;6.22;;;3.03;;
65375;SDS011;51976;47.332;9.404;2022-08-19T14:26:57;3.33;;;2.80;;
65375;SDS011;51976;47.332;9.404;2022-08-19T14:29:23;3.28;;;2.97;;
65375;SDS011;51976;47.332;9.404;2022-08-19T14:31:49;4.75;;;2.90;;
65375;SDS011;51976;47.332;9.404;2022-08-19T14:34:15;3.95;;;2.80;;
65375;SDS011;51976;47.332;9.404;2022-08-19T14:36:40;3.97;;;3.33;;
65375;SDS011;51976;47.332;9.404;2022-08-19T14:39:06;5.45;;;3.33;;
65375;SDS011;51976;47.332;9.404;2022-08-19T14:41:33;2.80;;;2.40;;
65375;SDS011;51976;47.332;9.404;2022-08-19T14:43:59;3.65;;;3.22;;
65375;SDS011;51976;47.332;9.404;2022-08-19T14:46:26;4.10;;;2.92;;
65375;SDS011;51976;47.332;9.404;2022-08-19T14:48:53;5.25;;;3.15;;
65375;SDS011;51976;47.332;9.404;2022-08-19T14:51:20;2.95;;;2.63;;
65375;SDS011;51976;47.332;9.404;2022-08-19T14:53:48;3.10;;;2.80;;
65375;SDS011;51976;47.332;9.404;2022-08-19T14:56:15;4.07;;;2.92;;
65375;SDS011;51976;47.332;9.404;2022-08-19T14:58:44;9.20;;;3.10;;
65375;SDS011;51976;47.332;9.404;2022-08-19T15:01:10;3.67;;;2.60;;
65375;SDS011;51976;47.332;9.404;2022-08-19T15:03:37;3.92;;;2.90;;